createdAt,value
2018-02-03T00:00:26.159Z,11.45
2018-02-03T00:02:53.698Z,10.27
2018-02-03T00:05:21.240Z,10.63
2018-02-03T00:07:48.796Z,9.40
2018-02-03T00:10:16.506Z,20.65
2018-02-03T00:12:44.064Z,13.87
2018-02-03T00:15:11.648Z,18.20
2018-02-03T00:17:39.191Z,15.03
2018-02-03T00:20:06.736Z,10.13
2018-02-03T00:22:35.006Z,9.80
2018-02-03T00:25:02.538Z,9.88
2018-02-03T00:27:30.075Z,11.10
2018-02-03T00:29:58.491Z,9.70
2018-02-03T00:32:26.033Z,11.90
2018-02-03T00:34:53.566Z,14.27
2018-02-03T00:37:21.140Z,12.07
2018-02-03T00:39:48.672Z,9.73
2018-02-03T00:42:16.423Z,9.50
2018-02-03T00:44:44.683Z,9.90
2018-02-03T00:47:12.212Z,12.43
2018-02-03T00:49:39.751Z,12.27
2018-02-03T00:52:07.311Z,12.90
2018-02-03T00:54:34.855Z,10.70
2018-02-03T00:57:02.404Z,13.20
2018-02-03T00:59:30.008Z,13.50
2018-02-03T01:01:57.548Z,13.13
2018-02-03T01:04:25.849Z,10.73
2018-02-03T01:06:53.467Z,10.57
2018-02-03T01:09:21.015Z,11.63
2018-02-03T01:11:48.550Z,9.97
2018-02-03T01:14:17.239Z,9.88
2018-02-03T01:16:44.774Z,9.93
2018-02-03T01:19:12.311Z,10.10
2018-02-03T01:21:39.909Z,8.60
2018-02-03T01:24:08.567Z,9.33
2018-02-03T01:26:36.876Z,10.20
2018-02-03T01:29:04.989Z,9.98
2018-02-03T01:31:32.532Z,10.25
2018-02-03T01:34:00.080Z,9.43
2018-02-03T01:36:27.696Z,9.83
2018-02-03T01:38:55.231Z,9.60
2018-02-03T01:41:22.766Z,10.15
2018-02-03T01:43:50.323Z,9.87
2018-02-03T01:46:17.859Z,9.60
2018-02-03T01:48:45.398Z,8.83
2018-02-03T01:51:15.403Z,9.43
2018-02-03T01:53:42.942Z,9.30
2018-02-03T01:56:10.483Z,8.93
2018-02-03T01:58:38.403Z,9.30
2018-02-03T02:01:06.701Z,9.00
2018-02-03T02:03:34.244Z,9.20
2018-02-03T02:06:01.815Z,9.20
2018-02-03T02:08:29.361Z,9.25
2018-02-03T02:10:56.896Z,9.03
2018-02-03T02:13:25.655Z,8.55
2018-02-03T02:15:53.187Z,9.20
2018-02-03T02:18:20.728Z,9.80
2018-02-03T02:20:48.299Z,8.70
2018-02-03T02:23:16.419Z,9.20
2018-02-03T02:25:44.191Z,8.50
2018-02-03T02:28:11.804Z,9.37
2018-02-03T02:30:39.335Z,8.80
2018-02-03T02:33:06.944Z,9.67
2018-02-03T02:35:35.409Z,10.23
2018-02-03T02:38:02.952Z,9.93
2018-02-03T02:40:30.495Z,9.38
2018-02-03T02:42:58.054Z,8.97
2018-02-03T02:45:26.356Z,9.50
2018-02-03T02:47:53.887Z,9.50
2018-02-03T02:50:22.228Z,10.25
2018-02-03T02:52:49.783Z,10.37
2018-02-03T02:55:17.326Z,10.00
2018-02-03T02:57:45.215Z,9.57
2018-02-03T03:00:12.759Z,10.30
2018-02-03T03:02:40.302Z,9.67
2018-02-03T03:05:07.919Z,10.00
2018-02-03T03:07:35.454Z,10.00
2018-02-03T03:10:02.989Z,9.73
2018-02-03T03:12:30.555Z,9.10
2018-02-03T03:14:58.099Z,8.83
2018-02-03T03:17:25.631Z,9.83
2018-02-03T03:19:54.546Z,8.93
2018-02-03T03:22:22.083Z,9.73
2018-02-03T03:24:49.626Z,9.60
2018-02-03T03:27:17.342Z,9.40
2018-02-03T03:29:44.884Z,10.47
2018-02-03T03:32:12.424Z,9.20
2018-02-03T03:34:40.747Z,9.30
2018-02-03T03:37:08.283Z,8.53
2018-02-03T03:39:35.822Z,9.70
2018-02-03T03:42:03.751Z,9.27
2018-02-03T03:44:31.295Z,9.18
2018-02-03T03:46:58.835Z,9.30
2018-02-03T03:49:26.403Z,9.43
2018-02-03T03:51:53.940Z,9.83
2018-02-03T03:54:22.239Z,9.13
2018-02-03T03:56:49.808Z,10.30
2018-02-03T03:59:17.348Z,8.97
2018-02-03T04:01:44.887Z,9.70
2018-02-03T04:04:14.659Z,8.10
2018-02-03T04:06:42.220Z,8.50
2018-02-03T04:09:09.754Z,8.63
2018-02-03T04:11:37.317Z,8.60
2018-02-03T04:14:04.850Z,9.20
2018-02-03T04:16:33.144Z,8.13
2018-02-03T04:19:00.812Z,8.53
2018-02-03T04:21:29.117Z,8.00
2018-02-03T04:23:56.655Z,8.23
2018-02-03T04:26:24.850Z,8.27
2018-02-03T04:28:52.763Z,8.83
2018-02-03T04:31:21.084Z,8.50
2018-02-03T04:33:48.650Z,8.80
2018-02-03T04:36:17.210Z,8.40
2018-02-03T04:38:44.743Z,8.00
2018-02-03T04:41:13.995Z,8.07
2018-02-03T04:43:41.532Z,8.23
2018-02-03T04:46:09.059Z,7.77
2018-02-03T04:48:37.571Z,8.50
2018-02-03T04:51:05.108Z,8.33
2018-02-03T04:53:32.651Z,7.78
2018-02-03T04:56:00.218Z,8.77
2018-02-03T04:58:27.751Z,8.05
2018-02-03T05:00:55.285Z,8.60
2018-02-03T05:03:22.855Z,7.90
2018-02-03T05:05:51.163Z,8.37
2018-02-03T05:08:18.705Z,8.23
2018-02-03T05:10:46.804Z,9.17
2018-02-03T05:13:15.435Z,9.55
2018-02-03T05:20:09.156Z,9.30
2018-02-03T05:22:36.683Z,9.93
2018-02-03T05:25:04.221Z,10.80
2018-02-03T05:27:32.359Z,10.10
2018-02-03T05:30:00.159Z,11.90
2018-02-03T05:32:27.698Z,11.37
2018-02-03T05:34:55.272Z,12.50
2018-02-03T05:37:22.812Z,13.73
2018-02-03T05:39:50.396Z,13.07
2018-02-03T05:42:18.767Z,14.07
2018-02-03T05:44:48.843Z,16.17
2018-02-03T05:47:16.431Z,16.30
2018-02-03T05:49:44.012Z,14.70
2018-02-03T05:52:11.563Z,14.10
2018-02-03T05:54:39.099Z,15.30
2018-02-03T05:57:06.659Z,15.10
2018-02-03T05:59:34.203Z,16.53
2018-02-03T06:02:01.739Z,14.70
2018-02-03T06:04:29.296Z,14.70
2018-02-03T06:06:56.840Z,14.40
2018-02-03T06:09:25.134Z,14.67
2018-02-03T06:11:53.249Z,13.57
2018-02-03T06:14:20.783Z,15.40
2018-02-03T06:16:48.319Z,15.50
2018-02-03T06:19:17.351Z,14.93
2018-02-03T06:21:44.888Z,14.47
2018-02-03T06:24:12.527Z,16.20
2018-02-03T06:26:40.116Z,14.20
2018-02-03T06:29:07.659Z,15.10
2018-02-03T06:31:35.466Z,14.53
2018-02-03T06:34:03.099Z,14.23
2018-02-03T06:36:30.669Z,15.43
2018-02-03T06:38:58.266Z,16.97
2018-02-03T06:41:25.872Z,16.90
2018-02-03T06:43:53.502Z,16.00
2018-02-03T06:46:21.883Z,15.55
2018-02-03T06:48:50.289Z,15.13
2018-02-03T06:51:17.867Z,15.67
2018-02-03T06:53:45.425Z,15.40
2018-02-03T06:56:14.940Z,15.05
2018-02-03T06:58:42.480Z,13.62
2018-02-03T07:01:10.153Z,14.60
2018-02-03T07:03:37.732Z,15.90
2018-02-03T07:06:05.263Z,15.30
2018-02-03T07:08:32.811Z,14.05
2018-02-03T07:11:00.380Z,18.50
2018-02-03T07:13:27.915Z,16.65
2018-02-03T07:15:55.455Z,15.70
2018-02-03T07:18:23.403Z,15.00
2018-02-03T07:20:50.936Z,15.23
2018-02-03T07:23:18.479Z,13.82
2018-02-03T07:25:46.044Z,14.53
2018-02-03T07:28:14.575Z,14.52
2018-02-03T07:30:42.111Z,14.00
2018-02-03T07:33:09.895Z,15.30
2018-02-03T07:35:37.434Z,14.90
2018-02-03T07:38:05.735Z,16.17
2018-02-03T07:40:33.327Z,16.00
2018-02-03T07:43:01.630Z,14.57
2018-02-03T07:45:29.167Z,15.23
2018-02-03T07:47:57.487Z,14.53
2018-02-03T07:50:25.787Z,14.40
2018-02-03T07:52:53.325Z,14.83
2018-02-03T07:55:20.882Z,14.80
2018-02-03T07:57:48.415Z,15.88
2018-02-03T08:00:16.549Z,14.92
2018-02-03T08:02:44.444Z,15.83
2018-02-03T08:05:13.793Z,14.93
2018-02-03T08:07:41.594Z,15.33
2018-02-03T08:10:09.212Z,16.37
2018-02-03T08:12:36.892Z,15.07
2018-02-03T08:15:04.432Z,15.85
2018-02-03T08:17:32.896Z,15.32
2018-02-03T08:20:00.452Z,16.90
2018-02-03T08:22:28.048Z,14.50
2018-02-03T08:24:55.716Z,15.07
2018-02-03T08:27:23.271Z,14.23
2018-02-03T08:29:50.802Z,15.37
2018-02-03T08:32:18.365Z,14.27
2018-02-03T08:34:46.410Z,15.37
2018-02-03T08:37:16.398Z,15.65
2018-02-03T08:39:43.963Z,15.17
2018-02-03T08:42:11.500Z,14.50
2018-02-03T08:44:39.032Z,14.67
2018-02-03T08:47:07.516Z,14.87
2018-02-03T08:49:35.047Z,15.30
2018-02-03T08:52:03.342Z,14.93
2018-02-03T08:54:30.899Z,14.30
2018-02-03T08:56:58.430Z,13.73
2018-02-03T08:59:25.963Z,14.37
2018-02-03T09:01:53.528Z,13.80
2018-02-03T09:04:21.055Z,14.40
2018-02-03T09:06:48.599Z,16.80
2018-02-03T09:09:17.523Z,15.07
2018-02-03T09:11:56.811Z,13.93
2018-02-03T09:14:25.141Z,14.33
2018-02-03T09:16:52.666Z,14.27
2018-02-03T09:19:20.355Z,14.60
2018-02-03T09:21:47.943Z,13.20
2018-02-03T09:24:15.511Z,13.90
2018-02-03T09:26:43.361Z,13.40
2018-02-03T09:29:11.423Z,13.73
2018-02-03T09:31:38.953Z,12.80
2018-02-03T09:34:06.504Z,13.95
2018-02-03T09:36:34.315Z,12.80
2018-02-03T09:39:01.916Z,11.07
2018-02-03T09:41:30.312Z,12.20
2018-02-03T09:43:57.922Z,11.70
2018-02-03T09:46:25.463Z,11.23
2018-02-03T09:48:52.991Z,11.30
2018-02-03T09:51:20.863Z,12.00
2018-02-03T09:53:48.424Z,12.68
2018-02-03T09:56:17.240Z,11.37
2018-02-03T09:58:44.838Z,13.00
2018-02-03T10:01:12.468Z,13.87
2018-02-03T10:03:40.208Z,13.70
2018-02-03T10:06:07.824Z,12.93
2018-02-03T10:08:36.416Z,13.62
2018-02-03T10:11:04.751Z,13.33
2018-02-03T10:13:32.823Z,12.63
2018-02-03T10:16:00.360Z,11.70
2018-02-03T10:18:27.896Z,12.90
2018-02-03T10:20:56.344Z,12.70
2018-02-03T10:23:23.879Z,12.53
2018-02-03T10:25:51.474Z,13.40
2018-02-03T10:28:19.059Z,12.07
2018-02-03T10:30:46.618Z,13.93
2018-02-03T10:33:16.255Z,14.30
2018-02-03T10:35:44.255Z,12.67
2018-02-03T10:38:12.243Z,11.80
2018-02-03T10:40:39.783Z,13.90
2018-02-03T10:43:07.342Z,11.60
2018-02-03T10:45:34.908Z,10.67
2018-02-03T10:48:02.613Z,11.50
2018-02-03T10:50:30.187Z,11.03
2018-02-03T10:52:57.725Z,11.40
2018-02-03T10:55:26.033Z,10.87
2018-02-03T10:57:53.890Z,11.80
2018-02-03T11:00:21.456Z,11.08
2018-02-03T11:02:49.021Z,11.90
2018-02-03T11:05:16.676Z,11.07
2018-02-03T11:07:44.288Z,10.40
2018-02-03T11:10:12.966Z,12.00
2018-02-03T11:12:40.534Z,11.07
2018-02-03T11:15:08.076Z,11.00
2018-02-03T11:17:35.620Z,10.87
2018-02-03T11:20:03.659Z,11.57
2018-02-03T11:22:31.203Z,11.80
2018-02-03T11:24:58.771Z,11.37
2018-02-03T11:27:27.127Z,10.67
2018-02-03T11:29:54.676Z,11.57
2018-02-03T11:32:22.288Z,11.43
2018-02-03T11:34:49.851Z,11.60
2018-02-03T11:37:17.392Z,10.90
2018-02-03T11:39:45.475Z,10.80
2018-02-03T11:42:15.819Z,11.12
2018-02-03T11:44:43.359Z,11.75
2018-02-03T11:47:10.896Z,11.03
2018-02-03T11:49:39.224Z,11.33
2018-02-03T11:52:06.759Z,13.57
2018-02-03T11:54:34.298Z,10.70
2018-02-03T11:57:02.727Z,10.37
2018-02-03T11:59:30.263Z,10.83
2018-02-03T12:01:57.795Z,12.10
2018-02-03T12:04:25.932Z,10.93
2018-02-03T12:06:53.521Z,10.70
2018-02-03T12:09:21.055Z,11.30
2018-02-03T12:11:48.639Z,12.40
2018-02-03T12:14:17.268Z,12.15
2018-02-03T12:16:44.802Z,11.10
2018-02-03T12:19:14.052Z,9.83
2018-02-03T12:21:41.657Z,10.30
2018-02-03T12:24:09.196Z,7.63
2018-02-03T12:26:37.239Z,10.13
2018-02-03T12:29:04.772Z,9.37
2018-02-03T12:31:32.371Z,10.13
2018-02-03T12:33:59.937Z,10.07
2018-02-03T12:36:27.467Z,9.98
2018-02-03T12:38:55.023Z,9.73
2018-02-03T12:41:22.735Z,10.60
2018-02-03T12:43:50.327Z,9.63
2018-02-03T12:46:17.871Z,10.40
2018-02-03T12:48:46.651Z,9.05
2018-02-03T12:51:15.503Z,10.27
2018-02-03T12:53:43.044Z,11.67
2018-02-03T12:56:10.612Z,10.90
2018-02-03T12:58:38.156Z,10.60
2018-02-03T13:01:05.686Z,10.57
2018-02-03T13:03:33.259Z,10.15
2018-02-03T13:06:01.568Z,11.27
2018-02-03T13:08:29.122Z,10.37
2018-02-03T13:10:56.996Z,10.93
2018-02-03T13:13:24.531Z,9.98
2018-02-03T13:15:52.418Z,10.67
2018-02-03T13:18:20.909Z,9.73
2018-02-03T13:20:48.648Z,11.18
2018-02-03T13:23:16.404Z,9.73
2018-02-03T13:25:44.773Z,9.93
2018-02-03T13:28:13.994Z,10.47
2018-02-03T13:30:41.591Z,10.05
2018-02-03T13:33:09.207Z,9.17
2018-02-03T13:35:36.751Z,10.33
2018-02-03T13:38:05.060Z,10.60
2018-02-03T13:40:32.672Z,11.68
2018-02-03T13:43:00.767Z,10.00
2018-02-03T13:45:29.110Z,9.70
2018-02-03T13:47:56.671Z,10.43
2018-02-03T13:50:24.215Z,11.23
2018-02-03T13:52:51.759Z,10.67
2018-02-03T13:55:19.799Z,10.10
2018-02-03T13:57:48.252Z,10.93
2018-02-03T14:00:16.724Z,10.90
2018-02-03T14:02:44.307Z,10.10
2018-02-03T14:05:11.863Z,9.87
2018-02-03T14:07:39.414Z,11.50
2018-02-03T14:10:06.991Z,10.33
2018-02-03T14:12:34.528Z,10.50
2018-02-03T14:15:02.092Z,10.30
2018-02-03T14:17:30.160Z,10.47
2018-02-03T14:19:57.712Z,11.47
2018-02-03T14:22:25.282Z,10.80
2018-02-03T14:24:58.464Z,10.40
2018-02-03T14:27:26.035Z,11.33
2018-02-03T14:29:53.666Z,10.53
2018-02-03T14:32:21.276Z,11.93
2018-02-03T14:34:48.839Z,12.23
2018-02-03T14:37:16.706Z,11.07
2018-02-03T14:39:44.334Z,11.03
2018-02-03T14:42:11.967Z,10.20
2018-02-03T14:44:39.987Z,12.40
2018-02-03T14:47:07.543Z,12.75
2018-02-03T14:49:35.086Z,11.10
2018-02-03T14:52:02.625Z,11.80
2018-02-03T14:54:30.199Z,10.20
2018-02-03T14:56:57.742Z,10.87
2018-02-03T14:59:25.295Z,11.93
2018-02-03T15:01:53.146Z,11.37
2018-02-03T15:04:22.812Z,12.17
2018-02-03T15:06:50.376Z,12.60
2018-02-03T15:09:17.948Z,12.43
2018-02-03T15:11:45.518Z,11.65
2018-02-03T15:14:24.364Z,12.02
2018-02-03T15:19:35.140Z,11.33
2018-02-03T15:22:02.683Z,11.57
2018-02-03T15:24:31.257Z,11.20
2018-02-03T15:26:59.819Z,14.23
2018-02-03T15:29:27.366Z,12.43
2018-02-03T15:31:54.904Z,12.80
2018-02-03T15:34:22.471Z,12.03
2018-02-03T15:36:50.035Z,12.77
2018-02-03T15:39:17.577Z,12.80
2018-02-03T15:41:46.454Z,12.13
2018-02-03T15:44:16.290Z,12.70
2018-02-03T15:46:44.244Z,12.37
2018-02-03T15:49:11.803Z,13.17
2018-02-03T15:51:39.349Z,13.60
2018-02-03T15:54:07.654Z,15.17
2018-02-03T15:56:35.509Z,14.40
2018-02-03T15:59:03.057Z,13.17
2018-02-03T16:01:30.619Z,13.30
2018-02-03T16:03:58.516Z,13.17
2018-02-03T16:06:26.071Z,15.13
2018-02-03T16:08:53.611Z,13.00
2018-02-03T16:11:21.194Z,11.90
2018-02-03T16:13:48.758Z,12.30
2018-02-03T16:16:17.327Z,12.57
2018-02-03T16:18:44.939Z,15.40
2018-02-03T16:21:14.190Z,15.68
2018-02-03T16:23:41.939Z,22.27
2018-02-03T16:26:09.556Z,18.77
2018-02-03T16:28:37.091Z,17.60
2018-02-03T16:31:04.889Z,16.00
2018-02-03T16:33:32.551Z,15.75
2018-02-03T16:36:00.087Z,15.13
2018-02-03T16:38:27.628Z,13.07
2018-02-03T16:40:55.290Z,14.67
2018-02-03T16:43:22.827Z,14.60
2018-02-03T16:45:51.171Z,14.17
2018-02-03T16:48:19.739Z,14.53
2018-02-03T16:50:47.291Z,16.50
2018-02-03T16:53:17.202Z,15.10
2018-02-03T16:55:44.798Z,18.80
2018-02-03T16:58:12.351Z,17.73
2018-02-03T17:00:40.759Z,21.53
2018-02-03T17:03:09.084Z,23.13
2018-02-03T17:05:36.739Z,21.70
2018-02-03T17:08:04.374Z,17.50
2018-02-03T17:10:31.972Z,21.43
2018-02-03T17:12:59.512Z,24.90
2018-02-03T17:15:27.051Z,27.00
2018-02-03T17:17:54.618Z,24.53
2018-02-03T17:20:22.175Z,17.40
2018-02-03T17:22:49.829Z,14.73
2018-02-03T17:25:17.523Z,15.37
2018-02-03T17:27:45.299Z,16.20
2018-02-03T17:30:13.894Z,15.60
2018-02-03T17:32:42.013Z,15.38
2018-02-03T17:35:10.324Z,17.95
2018-02-03T17:37:43.491Z,18.80
2018-02-03T17:40:11.164Z,13.73
2018-02-03T17:42:38.775Z,11.60
2018-02-03T17:45:12.143Z,7.87
2018-02-03T17:47:39.675Z,8.67
2018-02-03T17:50:07.967Z,9.20
2018-02-03T17:52:36.379Z,6.80
2018-02-03T17:55:03.936Z,7.40
2018-02-03T17:57:37.144Z,6.32
2018-02-03T18:00:04.891Z,9.40
2018-02-03T18:02:32.450Z,10.87
2018-02-03T18:05:00.588Z,8.90
2018-02-03T18:07:28.122Z,6.62
2018-02-03T18:09:56.422Z,7.80
2018-02-03T18:12:24.079Z,6.33
2018-02-03T18:14:51.651Z,7.70
2018-02-03T18:17:19.175Z,8.63
2018-02-03T18:19:46.856Z,10.93
2018-02-03T18:22:16.430Z,11.35
2018-02-03T18:24:44.054Z,10.03
2018-02-03T18:27:11.643Z,9.80
2018-02-03T18:29:39.181Z,10.93
2018-02-03T18:32:06.724Z,12.23
2018-02-03T18:34:34.315Z,13.27
2018-02-03T18:37:01.857Z,11.67
2018-02-03T18:39:29.509Z,12.43
2018-02-03T18:41:57.067Z,11.23
2018-02-03T18:44:24.607Z,8.20
2018-02-03T18:46:52.210Z,7.70
2018-02-03T18:49:19.789Z,11.88
2018-02-03T18:51:47.995Z,13.70
2018-02-03T18:54:17.222Z,15.04
2018-02-03T18:56:44.836Z,11.67
2018-02-03T18:59:12.382Z,11.50
2018-02-03T19:01:39.911Z,10.90
2018-02-03T19:04:07.524Z,13.02
2018-02-03T19:06:35.068Z,12.07
2018-02-03T19:09:02.616Z,11.57
2018-02-03T19:11:30.202Z,10.50
2018-02-03T19:13:57.759Z,13.00
2018-02-03T19:16:25.455Z,14.40
2018-02-03T19:18:53.125Z,14.70
2018-02-03T19:21:20.685Z,15.63
2018-02-03T19:23:48.269Z,12.10
2018-02-03T19:26:16.459Z,13.03
2018-02-03T19:28:44.174Z,10.20
2018-02-03T19:31:11.817Z,10.40
2018-02-03T19:33:39.449Z,9.17
2018-02-03T19:36:07.046Z,8.33
2018-02-03T19:38:34.596Z,8.97
2018-02-03T19:41:03.552Z,8.57
2018-02-03T19:43:31.566Z,10.43
2018-02-03T19:46:02.083Z,10.13
2018-02-03T19:48:29.697Z,11.93
2018-02-03T19:50:57.363Z,12.70
2018-02-03T19:53:27.533Z,12.27
2018-02-03T19:55:55.945Z,14.23
2018-02-03T19:58:25.548Z,14.68
2018-02-03T20:00:53.129Z,13.90
2018-02-03T20:03:20.966Z,13.68
2018-02-03T20:05:49.311Z,12.70
2018-02-03T20:08:16.902Z,15.20
2018-02-03T20:10:44.594Z,17.87
2018-02-03T20:13:12.227Z,18.07
2018-02-03T20:15:55.345Z,20.00
2018-02-03T20:18:25.195Z,16.36
2018-02-03T20:20:53.563Z,17.90
2018-02-03T20:23:21.633Z,14.60
2018-02-03T20:25:49.239Z,20.37
2018-02-03T20:28:16.834Z,14.23
2018-02-03T20:30:47.154Z,13.40
2018-02-03T20:33:17.211Z,11.40
2018-02-03T20:35:44.833Z,11.60
2018-02-03T20:38:14.247Z,10.90
2018-02-03T20:40:42.542Z,10.30
2018-02-03T20:43:10.262Z,9.60
2018-02-03T20:45:37.886Z,9.17
2018-02-03T20:48:05.448Z,9.33
2018-02-03T20:50:33.014Z,9.65
2018-02-03T20:53:00.649Z,10.93
2018-02-03T20:55:28.760Z,13.20
2018-02-03T20:57:56.390Z,12.37
2018-02-03T21:00:24.075Z,10.95
2018-02-03T21:02:51.663Z,9.77
2018-02-03T21:05:19.247Z,9.50
2018-02-03T21:07:48.258Z,8.30
2018-02-03T21:10:16.607Z,8.07
2018-02-03T21:12:44.904Z,8.27
2018-02-03T21:15:12.476Z,11.37
2018-02-03T21:17:40.012Z,12.70
2018-02-03T21:20:07.637Z,11.83
2018-02-03T21:22:35.218Z,11.03
2018-02-03T21:25:02.801Z,8.27
2018-02-03T21:27:30.344Z,7.72
2018-02-03T21:29:58.699Z,8.90
2018-02-03T21:32:26.442Z,9.80
2018-02-03T21:34:54.018Z,13.10
2018-02-03T21:37:21.618Z,12.43
2018-02-03T21:39:49.202Z,11.60
2018-02-03T21:42:16.747Z,11.23
2018-02-03T21:44:44.306Z,10.57
2018-02-03T21:47:11.853Z,9.80
2018-02-03T21:49:40.233Z,11.82
2018-02-03T21:52:08.936Z,14.70
2018-02-03T21:54:36.675Z,16.25
2018-02-03T21:57:05.287Z,11.37
2018-02-03T21:59:32.913Z,15.77
2018-02-03T22:02:00.447Z,12.70
2018-02-03T22:04:27.998Z,12.63
2018-02-03T22:06:55.631Z,12.75
2018-02-03T22:09:23.304Z,12.63
2018-02-03T22:11:50.890Z,11.07
2018-02-03T22:14:18.482Z,10.57
2018-02-03T22:16:46.053Z,12.07
2018-02-03T22:19:25.735Z,12.33
2018-02-03T22:24:26.071Z,13.30
2018-02-03T22:26:53.635Z,14.77
2018-02-03T22:29:21.167Z,13.57
2018-02-03T22:31:49.237Z,15.57
2018-02-03T22:34:17.541Z,13.70
2018-02-03T22:36:45.080Z,14.37
2018-02-03T22:39:14.365Z,16.40
2018-02-03T22:41:41.895Z,17.40
2018-02-03T22:44:09.432Z,18.60
2018-02-03T22:46:37.012Z,15.37
2018-02-03T22:49:04.657Z,14.40
2018-02-03T22:51:32.204Z,13.95
2018-02-03T22:53:59.819Z,15.60
2018-02-03T22:56:27.375Z,14.43
2018-02-03T22:58:54.964Z,15.43
2018-02-03T23:01:22.535Z,16.27
2018-02-03T23:03:50.071Z,15.40
2018-02-03T23:06:18.384Z,16.70
2018-02-03T23:08:46.052Z,16.80
2018-02-03T23:11:19.462Z,17.05
2018-02-03T23:20:37.363Z,19.03
2018-02-03T23:23:04.904Z,17.50
2018-02-03T23:25:32.575Z,17.30
2018-02-03T23:28:00.177Z,18.00
2018-02-03T23:30:27.732Z,18.40
2018-02-03T23:32:55.271Z,18.97
2018-02-03T23:35:22.839Z,18.67
2018-02-03T23:37:50.418Z,18.77
2018-02-03T23:40:17.969Z,21.27
2018-02-03T23:42:46.919Z,22.23
2018-02-03T23:45:25.322Z,22.05
2018-02-03T23:50:34.519Z,23.03
2018-02-03T23:53:02.055Z,23.43
2018-02-03T23:55:29.671Z,21.77
2018-02-03T23:57:57.908Z,21.63
